createdAt,value
2019-05-19T00:03:56.013Z,14.30
2019-05-19T00:08:49.505Z,14.20
2019-05-19T00:13:42.980Z,14.20
2019-05-19T00:18:36.469Z,14.10
2019-05-19T00:23:29.949Z,14.00
2019-05-19T00:28:23.471Z,14.00
2019-05-19T00:33:22.696Z,13.80
2019-05-19T00:38:16.196Z,13.60
2019-05-19T00:43:09.824Z,13.80
2019-05-19T00:48:04.560Z,13.70
2019-05-19T00:52:58.310Z,13.70
2019-05-19T00:57:51.931Z,13.50
2019-05-19T01:02:52.139Z,13.50
2019-05-19T01:07:45.625Z,13.50
2019-05-19T01:12:39.377Z,13.40
2019-05-19T01:17:32.942Z,13.30
2019-05-19T01:22:26.575Z,13.30
2019-05-19T01:27:20.135Z,13.20
2019-05-19T01:32:14.706Z,13.30
2019-05-19T01:37:16.194Z,13.20
2019-05-19T01:42:09.754Z,13.00
2019-05-19T01:47:04.355Z,13.00
2019-05-19T01:52:03.681Z,12.90
2019-05-19T01:56:57.260Z,12.90
2019-05-19T02:01:52.809Z,12.80
2019-05-19T02:06:46.377Z,12.80
2019-05-19T02:11:40.212Z,12.80
2019-05-19T02:16:33.703Z,12.80
2019-05-19T02:21:27.529Z,12.80
2019-05-19T02:26:21.345Z,12.70
2019-05-19T02:31:16.130Z,12.80
2019-05-19T02:36:09.694Z,12.60
2019-05-19T02:41:04.985Z,12.60
2019-05-19T02:46:09.068Z,12.60
2019-05-19T02:51:04.349Z,12.60
2019-05-19T02:55:59.076Z,12.60
2019-05-19T03:00:52.834Z,12.40
2019-05-19T03:05:46.381Z,12.40
2019-05-19T03:10:39.865Z,12.10
2019-05-19T03:15:34.329Z,12.30
2019-05-19T03:20:28.821Z,12.30
2019-05-19T03:25:22.650Z,12.30
2019-05-19T03:30:33.301Z,12.30
2019-05-19T03:35:28.753Z,12.20
2019-05-19T03:40:22.332Z,12.30
2019-05-19T03:45:15.890Z,12.30
2019-05-19T03:50:09.809Z,12.40
2019-05-19T03:55:04.220Z,12.40
2019-05-19T03:59:57.709Z,12.40
2019-05-19T04:04:53.167Z,12.50
2019-05-19T04:09:47.743Z,12.70
2019-05-19T04:14:41.310Z,12.70
2019-05-19T04:19:34.904Z,12.80
2019-05-19T04:24:32.360Z,13.00
2019-05-19T04:29:25.545Z,13.10
2019-05-19T04:34:19.091Z,13.20
2019-05-19T04:39:12.647Z,13.10
2019-05-19T04:44:07.842Z,13.30
2019-05-19T04:49:01.662Z,13.30
2019-05-19T04:53:55.225Z,13.40
2019-05-19T04:58:49.032Z,13.50
2019-05-19T05:03:55.067Z,13.60
2019-05-19T05:08:49.197Z,13.90
2019-05-19T05:13:44.881Z,14.10
2019-05-19T05:18:47.824Z,14.40
2019-05-19T05:23:46.702Z,14.70
2019-05-19T05:28:40.248Z,14.90
2019-05-19T05:33:34.075Z,15.00
2019-05-19T05:38:27.662Z,15.10
2019-05-19T05:43:21.428Z,15.30
2019-05-19T05:48:14.920Z,15.80
2019-05-19T05:53:08.496Z,16.20
2019-05-19T05:58:02.317Z,16.30
2019-05-19T06:02:58.865Z,16.40
2019-05-19T06:07:55.080Z,16.60
2019-05-19T06:12:48.587Z,17.20
2019-05-19T06:17:46.640Z,17.60
2019-05-19T06:22:55.277Z,17.70
2019-05-19T06:27:36.812Z,17.90
2019-05-19T06:32:39.885Z,18.60
2019-05-19T06:37:34.725Z,19.30
2019-05-19T06:42:30.218Z,19.60
2019-05-19T06:47:24.044Z,20.00
2019-05-19T06:52:17.519Z,20.10
2019-05-19T06:57:20.227Z,20.10
2019-05-19T07:02:14.507Z,20.50
2019-05-19T07:07:08.407Z,20.70
2019-05-19T07:12:02.031Z,20.70
2019-05-19T07:16:55.523Z,20.90
2019-05-19T07:21:49.073Z,20.90
2019-05-19T07:26:42.556Z,21.40
2019-05-19T07:31:36.108Z,21.60
2019-05-19T07:36:29.865Z,21.50
2019-05-19T07:41:23.505Z,21.40
2019-05-19T07:46:17.162Z,21.60
2019-05-19T07:51:10.694Z,21.60
2019-05-19T07:56:04.248Z,22.10
2019-05-19T08:00:57.808Z,22.30
2019-05-19T08:05:51.361Z,22.30
2019-05-19T08:10:45.181Z,22.60
2019-05-19T08:15:38.813Z,22.80
2019-05-19T08:20:34.319Z,22.80
2019-05-19T08:25:27.892Z,22.60
2019-05-19T08:30:21.915Z,22.80
2019-05-19T08:35:18.705Z,23.00
2019-05-19T08:40:12.379Z,23.30
2019-05-19T08:45:08.210Z,23.70
2019-05-19T08:50:02.159Z,24.10
2019-05-19T08:54:55.731Z,24.50
2019-05-19T08:59:49.480Z,24.10
2019-05-19T09:04:43.246Z,24.20
2019-05-19T09:09:37.728Z,24.10
2019-05-19T09:14:31.554Z,24.10
2019-05-19T09:19:25.173Z,24.10
2019-05-19T09:24:30.050Z,24.20
2019-05-19T09:29:14.401Z,24.40
2019-05-19T09:34:08.012Z,24.90
2019-05-19T09:39:01.492Z,24.90
2019-05-19T09:43:55.092Z,25.20
2019-05-19T09:48:50.325Z,25.90
2019-05-19T09:53:44.224Z,26.10
2019-05-19T09:58:37.699Z,26.30
2019-05-19T10:03:31.192Z,25.60
2019-05-19T10:08:31.244Z,25.30
2019-05-19T10:13:24.733Z,25.50
2019-05-19T10:18:18.301Z,25.90
2019-05-19T10:23:11.864Z,26.50
2019-05-19T10:28:05.608Z,27.70
2019-05-19T10:32:59.212Z,28.60
2019-05-19T10:37:52.803Z,29.30
2019-05-19T10:42:46.311Z,29.90
2019-05-19T10:47:39.793Z,30.50
2019-05-19T10:52:33.350Z,31.00
2019-05-19T10:57:26.902Z,30.40
2019-05-19T11:02:21.581Z,30.70
2019-05-19T11:07:15.214Z,31.20
2019-05-19T11:12:13.603Z,31.40
2019-05-19T11:17:07.210Z,31.00
2019-05-19T11:22:02.714Z,29.20
2019-05-19T11:26:56.297Z,29.30
2019-05-19T11:31:49.889Z,29.80
2019-05-19T11:36:43.392Z,30.40
2019-05-19T11:41:41.696Z,28.40
2019-05-19T11:46:35.244Z,32.50
2019-05-19T11:51:29.312Z,32.60
2019-05-19T13:43:16.017Z,31.20
2019-05-19T13:48:19.688Z,29.00
2019-05-19T13:53:13.172Z,29.10
2019-05-19T13:58:09.158Z,30.60
2019-05-19T14:03:06.064Z,31.60
2019-05-19T14:08:06.446Z,31.20
2019-05-19T14:13:00.032Z,29.70
2019-05-19T14:17:53.686Z,28.70
2019-05-19T14:22:48.215Z,29.50
2019-05-19T14:27:42.733Z,27.80
2019-05-19T14:32:44.021Z,25.20
2019-05-19T14:37:37.552Z,23.40
2019-05-19T14:42:44.656Z,22.00
2019-05-19T14:47:39.397Z,20.70
2019-05-19T14:52:32.968Z,19.80
2019-05-19T14:57:26.857Z,19.90
2019-05-19T15:02:20.417Z,19.80
2019-05-19T15:07:13.954Z,19.80
2019-05-19T15:12:07.514Z,20.10
2019-05-19T15:17:01.162Z,20.30
2019-05-19T15:21:54.717Z,20.60
2019-05-19T15:26:48.217Z,20.70
2019-05-19T15:31:41.798Z,20.40
2019-05-19T15:36:35.356Z,20.10
2019-05-19T15:41:28.942Z,19.80
2019-05-19T15:46:26.664Z,20.00
2019-05-19T15:51:28.480Z,20.00
2019-05-19T15:56:15.825Z,20.00
2019-05-19T16:01:10.442Z,20.10
2019-05-19T16:06:04.301Z,20.30
2019-05-19T16:10:57.956Z,20.20
2019-05-19T16:15:52.524Z,20.10
2019-05-19T16:20:46.115Z,20.10
2019-05-19T16:25:39.616Z,20.20
2019-05-19T16:30:33.168Z,20.00
2019-05-19T16:35:27.708Z,20.10
2019-05-19T16:40:21.915Z,20.10
2019-05-19T16:45:15.589Z,19.90
2019-05-19T16:50:10.296Z,19.70
2019-05-19T16:55:20.109Z,19.50
2019-05-19T17:00:14.569Z,19.50
2019-05-19T17:05:08.288Z,19.50
2019-05-19T17:10:02.046Z,19.50
2019-05-19T17:14:56.584Z,19.40
2019-05-19T17:19:50.075Z,19.20
2019-05-19T17:24:43.560Z,19.10
2019-05-19T17:29:37.104Z,19.00
2019-05-19T17:34:30.747Z,18.80
2019-05-19T17:39:24.255Z,18.70
2019-05-19T17:44:17.905Z,18.80
2019-05-19T17:49:11.381Z,18.90
2019-05-19T17:54:05.098Z,18.80
2019-05-19T17:58:59.680Z,19.10
2019-05-19T18:03:53.164Z,19.40
2019-05-19T18:08:49.241Z,19.60
2019-05-19T18:13:46.508Z,19.50
2019-05-19T18:18:40.157Z,19.40
2019-05-19T18:23:33.693Z,19.10
2019-05-19T18:28:27.494Z,19.00
2019-05-19T18:33:20.988Z,18.80
2019-05-19T18:38:14.791Z,18.50
2019-05-19T18:43:08.364Z,18.30
2019-05-19T18:48:07.730Z,18.40
2019-05-19T18:53:02.234Z,18.30
2019-05-19T18:57:55.780Z,18.10
2019-05-19T19:02:49.330Z,18.10
2019-05-19T19:07:50.996Z,18.00
2019-05-19T19:12:54.131Z,17.90
2019-05-19T19:17:47.668Z,17.90
2019-05-19T19:22:44.132Z,17.80
2019-05-19T19:27:37.613Z,17.80
2019-05-19T19:32:31.435Z,17.80
2019-05-19T19:37:27.153Z,17.70
2019-05-19T19:42:20.707Z,17.70
2019-05-19T19:47:14.641Z,17.60
2019-05-19T19:52:09.449Z,17.60
2019-05-19T19:57:03.018Z,17.60
2019-05-19T20:01:57.182Z,17.50
2019-05-19T20:06:50.702Z,17.40
2019-05-19T20:11:44.400Z,17.30
2019-05-19T20:16:39.977Z,17.30
2019-05-19T20:21:33.921Z,16.90
2019-05-19T20:26:27.528Z,16.70
2019-05-19T20:31:21.105Z,16.90
2019-05-19T20:36:15.070Z,17.10
2019-05-19T20:41:09.584Z,16.80
2019-05-19T20:46:06.296Z,16.20
2019-05-19T20:51:00.225Z,15.90
2019-05-19T20:55:53.849Z,16.00
2019-05-19T21:00:51.927Z,15.80
2019-05-19T21:06:17.126Z,15.70
2019-05-19T21:11:14.853Z,15.80
2019-05-19T21:16:17.864Z,16.00
2019-05-19T21:27:38.206Z,15.80
2019-05-19T21:31:46.393Z,15.70
2019-05-19T21:36:40.632Z,15.90
2019-05-19T21:41:34.187Z,15.90
2019-05-19T21:46:30.581Z,15.80
2019-05-19T21:51:24.531Z,15.80
2019-05-19T21:56:22.569Z,15.90
2019-05-19T22:01:29.160Z,15.90
2019-05-19T22:06:26.070Z,15.90
2019-05-19T22:11:28.194Z,15.80
2019-05-19T22:16:23.475Z,15.70
2019-05-19T22:21:20.543Z,15.60
2019-05-19T22:26:20.213Z,15.40
2019-05-19T22:31:18.376Z,15.30
2019-05-19T22:36:12.182Z,15.30
2019-05-19T22:41:07.888Z,15.20
2019-05-19T22:46:01.488Z,15.20
2019-05-19T22:50:55.222Z,15.00
2019-05-19T22:55:48.745Z,15.00
2019-05-19T23:00:44.465Z,14.90
2019-05-19T23:05:40.603Z,14.90
2019-05-19T23:10:35.061Z,14.90
2019-05-19T23:15:28.544Z,14.80
2019-05-19T23:20:27.873Z,14.80
2019-05-19T23:25:21.613Z,14.80
2019-05-19T23:30:15.551Z,14.70
2019-05-19T23:35:09.484Z,14.60
2019-05-19T23:40:04.472Z,14.60
2019-05-19T23:44:57.957Z,14.60
2019-05-19T23:49:55.584Z,14.60
2019-05-19T23:54:49.166Z,14.50
2019-05-19T23:59:49.333Z,14.40
